createdAt,value
2018-03-16T00:01:49.772Z,9.93
2018-03-16T00:04:17.339Z,11.93
2018-03-16T00:06:44.348Z,11.00
2018-03-16T00:09:11.263Z,11.10
2018-03-16T00:11:38.407Z,14.13
2018-03-16T00:14:06.199Z,11.63
2018-03-16T00:16:33.234Z,10.60
2018-03-16T00:19:00.298Z,12.30
2018-03-16T00:21:27.542Z,11.60
2018-03-16T00:23:54.504Z,13.80
2018-03-16T00:26:21.523Z,10.93
2018-03-16T00:28:48.442Z,12.77
2018-03-16T00:31:15.595Z,13.20
2018-03-16T00:33:42.862Z,11.90
2018-03-16T00:36:10.431Z,13.57
2018-03-16T00:38:38.279Z,10.30
2018-03-16T00:41:05.234Z,10.87
2018-03-16T00:43:32.819Z,16.97
2018-03-16T00:45:59.898Z,11.67
2018-03-16T00:48:27.702Z,12.20
2018-03-16T00:50:54.909Z,12.67
2018-03-16T00:53:21.744Z,16.97
2018-03-16T00:55:48.767Z,11.50
2018-03-16T00:58:15.859Z,10.30
2018-03-16T01:00:42.939Z,12.83
2018-03-16T01:03:09.950Z,11.50
2018-03-16T01:05:37.558Z,10.37
2018-03-16T01:08:05.386Z,9.13
2018-03-16T01:10:32.743Z,8.93
2018-03-16T01:12:59.644Z,7.30
2018-03-16T01:15:26.671Z,7.90
2018-03-16T01:17:53.766Z,9.43
2018-03-16T01:20:20.796Z,6.87
2018-03-16T01:22:47.851Z,6.83
2018-03-16T01:25:15.602Z,6.87
2018-03-16T01:27:42.641Z,5.10
2018-03-16T01:30:09.671Z,6.80
2018-03-16T01:32:36.779Z,5.83
2018-03-16T01:35:03.807Z,8.37
2018-03-16T01:37:30.675Z,5.77
2018-03-16T01:39:57.498Z,4.47
2018-03-16T01:42:24.566Z,3.93
2018-03-16T01:44:51.477Z,3.20
2018-03-16T01:47:18.538Z,3.40
2018-03-16T01:49:45.442Z,3.47
2018-03-16T01:52:12.530Z,3.90
2018-03-16T01:54:40.246Z,4.20
2018-03-16T01:57:07.283Z,4.10
2018-03-16T01:59:34.371Z,4.20
2018-03-16T02:02:01.260Z,3.57
2018-03-16T02:04:28.331Z,4.27
2018-03-16T02:06:55.283Z,3.60
2018-03-16T02:09:22.299Z,3.37
2018-03-16T02:11:49.271Z,3.87
2018-03-16T02:14:16.302Z,3.27
2018-03-16T02:16:43.182Z,4.30
2018-03-16T02:19:10.236Z,4.13
2018-03-16T02:21:37.323Z,4.17
2018-03-16T02:24:04.447Z,4.33
2018-03-16T02:26:31.395Z,6.37
2018-03-16T02:28:58.447Z,4.30
2018-03-16T02:31:25.411Z,4.90
2018-03-16T02:33:52.464Z,5.80
2018-03-16T02:36:19.603Z,4.50
2018-03-16T02:38:47.388Z,3.80
2018-03-16T02:41:14.320Z,4.47
2018-03-16T02:43:41.394Z,6.30
2018-03-16T02:46:08.463Z,3.93
2018-03-16T02:48:35.411Z,7.23
2018-03-16T02:51:02.342Z,4.97
2018-03-16T02:53:29.470Z,6.90
2018-03-16T02:55:57.252Z,5.10
2018-03-16T02:58:24.223Z,3.53
2018-03-16T03:00:51.391Z,5.00
2018-03-16T03:03:18.491Z,5.73
2018-03-16T03:05:45.390Z,4.87
2018-03-16T03:08:12.472Z,4.97
2018-03-16T03:10:39.578Z,7.43
2018-03-16T03:13:06.638Z,4.33
2018-03-16T03:15:34.283Z,5.17
2018-03-16T03:18:01.131Z,4.13
2018-03-16T03:20:28.186Z,4.57
2018-03-16T03:22:55.179Z,6.80
2018-03-16T03:25:22.355Z,4.97
2018-03-16T03:27:50.388Z,5.33
2018-03-16T03:30:18.404Z,6.30
2018-03-16T03:32:46.264Z,5.27
2018-03-16T03:35:13.235Z,5.07
2018-03-16T03:37:40.379Z,5.63
2018-03-16T03:40:07.422Z,5.37
2018-03-16T03:42:35.345Z,5.93
2018-03-16T03:45:03.461Z,6.67
2018-03-16T03:47:31.238Z,8.93
2018-03-16T03:49:58.250Z,5.43
2018-03-16T03:52:25.295Z,8.40
2018-03-16T03:54:52.402Z,8.27
2018-03-16T03:57:19.519Z,5.30
2018-03-16T03:59:46.689Z,7.97
2018-03-16T04:02:13.807Z,5.50
2018-03-16T04:04:40.914Z,5.57
2018-03-16T04:07:07.889Z,5.20
2018-03-16T04:09:34.800Z,4.87
2018-03-16T04:12:01.767Z,8.68
2018-03-16T04:14:28.831Z,5.93
2018-03-16T04:16:56.071Z,4.60
2018-03-16T04:19:23.050Z,6.80
2018-03-16T04:21:50.056Z,5.20
2018-03-16T04:24:17.635Z,7.13
2018-03-16T04:26:44.639Z,7.20
2018-03-16T04:29:12.374Z,7.80
2018-03-16T04:31:39.347Z,5.90
2018-03-16T04:34:06.347Z,6.63
2018-03-16T04:36:33.225Z,5.80
2018-03-16T04:39:00.087Z,9.80
2018-03-16T04:41:27.031Z,7.83
2018-03-16T04:43:54.182Z,6.30
2018-03-16T04:46:22.011Z,9.23
2018-03-16T04:48:49.622Z,9.37
2018-03-16T04:51:17.291Z,11.60
2018-03-16T04:53:44.383Z,8.20
2018-03-16T04:56:12.185Z,8.47
2018-03-16T04:58:39.176Z,7.40
2018-03-16T05:01:06.247Z,7.20
2018-03-16T05:03:33.986Z,9.20
2018-03-16T05:06:00.907Z,6.83
2018-03-16T05:08:28.654Z,6.50
2018-03-16T05:10:55.719Z,7.03
2018-03-16T05:13:22.730Z,7.03
2018-03-16T05:15:49.779Z,6.93
2018-03-16T05:18:16.707Z,5.60
2018-03-16T05:20:43.579Z,6.90
2018-03-16T05:23:10.577Z,5.27
2018-03-16T05:25:37.516Z,7.37
2018-03-16T05:28:04.907Z,7.13
2018-03-16T05:30:32.871Z,6.73
2018-03-16T05:32:59.739Z,7.27
2018-03-16T05:35:26.699Z,7.60
2018-03-16T05:37:53.674Z,6.07
2018-03-16T05:40:20.754Z,8.70
2018-03-16T05:42:48.411Z,8.80
2018-03-16T05:45:15.766Z,6.63
2018-03-16T05:47:42.694Z,7.37
2018-03-16T05:50:09.956Z,11.43
2018-03-16T05:52:36.859Z,7.77
2018-03-16T05:55:04.348Z,7.37
2018-03-16T05:57:32.190Z,8.20
2018-03-16T05:59:59.881Z,7.87
2018-03-16T06:02:28.680Z,7.50
2018-03-16T06:04:56.366Z,8.77
2018-03-16T06:07:24.358Z,9.20
2018-03-16T06:09:51.938Z,11.83
2018-03-16T06:12:19.578Z,7.60
2018-03-16T06:14:46.558Z,7.97
2018-03-16T06:17:13.439Z,7.73
2018-03-16T06:19:40.288Z,7.80
2018-03-16T06:22:07.239Z,8.00
2018-03-16T06:24:34.087Z,8.50
2018-03-16T06:27:01.814Z,7.27
2018-03-16T06:29:29.483Z,10.37
2018-03-16T06:31:57.175Z,12.07
2018-03-16T06:34:24.043Z,8.40
2018-03-16T06:36:50.940Z,9.37
2018-03-16T06:39:17.846Z,9.93
2018-03-16T06:41:45.451Z,8.20
2018-03-16T06:44:12.351Z,10.07
2018-03-16T06:46:39.211Z,6.53
2018-03-16T06:49:06.051Z,10.60
2018-03-16T06:51:32.951Z,8.57
2018-03-16T06:54:00.532Z,11.73
2018-03-16T06:56:27.380Z,11.10
2018-03-16T06:58:54.250Z,9.80
2018-03-16T07:01:21.124Z,9.53
2018-03-16T07:03:47.955Z,11.50
2018-03-16T07:06:14.998Z,9.63
2018-03-16T07:08:42.722Z,10.33
2018-03-16T07:11:09.635Z,14.03
2018-03-16T07:13:36.484Z,9.40
2018-03-16T07:16:04.074Z,13.03
2018-03-16T07:18:30.910Z,8.70
2018-03-16T07:20:58.046Z,10.93
2018-03-16T07:23:24.931Z,10.20
2018-03-16T07:25:51.774Z,10.07
2018-03-16T07:28:18.635Z,12.50
2018-03-16T07:30:45.527Z,10.03
2018-03-16T07:33:12.354Z,11.23
2018-03-16T07:35:39.211Z,10.43
2018-03-16T07:38:06.082Z,11.60
2018-03-16T07:40:33.713Z,10.77
2018-03-16T07:43:01.019Z,13.13
2018-03-16T07:48:28.366Z,9.13
2018-03-16T07:50:56.727Z,9.50
2018-03-16T07:53:23.571Z,9.43
2018-03-16T07:55:50.459Z,9.87
2018-03-16T07:58:17.486Z,9.97
2018-03-16T08:00:44.507Z,11.23
2018-03-16T08:03:12.255Z,10.87
2018-03-16T08:05:39.283Z,8.93
2018-03-16T08:08:06.230Z,9.90
2018-03-16T08:10:33.127Z,8.30
2018-03-16T08:13:00.938Z,8.50
2018-03-16T08:15:27.900Z,9.70
2018-03-16T08:17:54.943Z,11.10
2018-03-16T08:20:22.067Z,8.87
2018-03-16T08:22:49.000Z,9.03
2018-03-16T08:25:15.879Z,9.30
2018-03-16T08:27:42.738Z,9.03
2018-03-16T08:30:09.579Z,8.80
2018-03-16T08:32:36.445Z,10.50
2018-03-16T08:35:03.679Z,9.20
2018-03-16T08:37:30.623Z,10.57
2018-03-16T08:39:57.687Z,8.27
2018-03-16T08:42:24.627Z,10.73
2018-03-16T08:44:51.454Z,9.27
2018-03-16T08:47:18.351Z,7.70
2018-03-16T08:49:45.236Z,8.50
2018-03-16T08:52:12.093Z,9.93
2018-03-16T08:54:38.971Z,7.57
2018-03-16T08:59:41.367Z,10.90
2018-03-16T09:02:08.299Z,11.17
2018-03-16T09:04:35.900Z,9.47
2018-03-16T09:07:02.738Z,11.20
2018-03-16T09:09:29.596Z,10.43
2018-03-16T09:11:56.593Z,9.30
2018-03-16T09:14:24.311Z,11.40
2018-03-16T09:16:51.923Z,10.17
2018-03-16T09:19:18.987Z,10.00
2018-03-16T09:21:46.091Z,10.17
2018-03-16T09:24:18.427Z,11.40
2018-03-16T09:26:47.413Z,11.67
2018-03-16T09:29:14.233Z,10.17
2018-03-16T09:31:46.890Z,10.73
2018-03-16T09:34:13.775Z,9.27
2018-03-16T09:36:40.598Z,10.90
2018-03-16T09:39:13.755Z,7.17
2018-03-16T09:41:40.691Z,9.10
2018-03-16T09:44:07.542Z,11.10
2018-03-16T09:46:35.168Z,9.40
2018-03-16T09:49:02.029Z,9.17
2018-03-16T09:51:29.904Z,9.73
2018-03-16T09:53:57.066Z,9.57
2018-03-16T09:56:24.755Z,10.60
2018-03-16T09:58:51.598Z,10.87
2018-03-16T10:01:18.710Z,10.47
2018-03-16T10:03:45.547Z,11.20
2018-03-16T10:06:12.647Z,13.70
2018-03-16T10:08:39.613Z,12.93
2018-03-16T10:11:06.589Z,14.60
2018-03-16T10:13:34.179Z,12.00
2018-03-16T10:16:01.050Z,12.53
2018-03-16T10:18:28.848Z,12.63
2018-03-16T10:20:56.115Z,13.97
2018-03-16T10:23:23.748Z,9.93
2018-03-16T10:25:50.619Z,10.10
2018-03-16T10:28:17.455Z,11.07
2018-03-16T10:30:44.331Z,9.37
2018-03-16T10:33:11.182Z,8.40
2018-03-16T10:35:38.363Z,7.73
2018-03-16T10:38:05.388Z,10.17
2018-03-16T10:40:33.189Z,9.50
2018-03-16T10:43:00.849Z,9.17
2018-03-16T10:45:34.715Z,7.00
2018-03-16T10:48:01.613Z,7.97
2018-03-16T10:50:28.509Z,8.00
2018-03-16T10:52:55.437Z,7.47
2018-03-16T10:55:23.100Z,6.90
2018-03-16T10:57:50.001Z,8.00
2018-03-16T11:00:23.035Z,7.27
2018-03-16T11:02:50.175Z,7.13
2018-03-16T11:05:18.124Z,5.63
2018-03-16T11:07:51.039Z,7.27
2018-03-16T11:10:18.075Z,7.87
2018-03-16T11:12:45.820Z,6.87
2018-03-16T11:15:16.708Z,7.53
2018-03-16T11:17:44.501Z,6.73
2018-03-16T11:20:11.601Z,6.43
2018-03-16T11:22:38.564Z,5.70
2018-03-16T11:25:05.474Z,6.27
2018-03-16T11:27:32.383Z,5.33
2018-03-16T11:29:59.332Z,4.70
2018-03-16T11:32:26.346Z,5.37
2018-03-16T11:34:53.183Z,7.50
2018-03-16T11:37:20.122Z,7.47
2018-03-16T11:39:47.058Z,7.93
2018-03-16T11:42:14.837Z,6.87
2018-03-16T11:44:41.802Z,11.47
2018-03-16T11:47:08.690Z,8.40
2018-03-16T11:49:35.575Z,7.50
2018-03-16T11:52:03.365Z,8.23
2018-03-16T11:54:30.250Z,11.27
2018-03-16T11:56:57.110Z,7.80
2018-03-16T11:59:24.003Z,9.43
2018-03-16T12:01:50.969Z,9.47
2018-03-16T12:04:17.967Z,9.20
2018-03-16T12:06:44.870Z,8.43
2018-03-16T12:09:11.770Z,10.07
2018-03-16T12:11:39.630Z,8.80
2018-03-16T12:14:07.414Z,8.47
2018-03-16T12:16:35.055Z,9.03
2018-03-16T12:19:02.747Z,10.03
2018-03-16T12:21:30.460Z,8.33
2018-03-16T12:23:58.165Z,9.30
2018-03-16T12:26:25.090Z,10.07
2018-03-16T12:28:52.815Z,8.80
2018-03-16T12:31:19.771Z,9.80
2018-03-16T12:33:47.416Z,10.00
2018-03-16T12:36:14.331Z,9.53
2018-03-16T12:38:41.927Z,8.80
2018-03-16T12:41:08.856Z,8.73
2018-03-16T12:43:35.710Z,8.57
2018-03-16T12:46:02.585Z,8.97
2018-03-16T12:48:29.563Z,10.05
2018-03-16T12:50:56.477Z,9.03
2018-03-16T12:53:23.382Z,9.27
2018-03-16T12:55:50.967Z,10.47
2018-03-16T12:58:17.806Z,8.73
2018-03-16T13:00:44.962Z,7.57
2018-03-16T13:03:11.979Z,6.83
2018-03-16T13:05:39.687Z,5.53
2018-03-16T13:08:07.419Z,4.67
2018-03-16T13:10:35.192Z,5.60
2018-03-16T13:13:02.166Z,9.87
2018-03-16T13:15:29.912Z,5.37
2018-03-16T13:17:57.605Z,4.17
2018-03-16T13:20:25.249Z,5.13
2018-03-16T13:22:52.151Z,3.90
2018-03-16T13:25:19.904Z,5.70
2018-03-16T13:27:46.926Z,5.80
2018-03-16T13:30:13.750Z,8.70
2018-03-16T13:32:40.595Z,5.07
2018-03-16T13:35:07.444Z,8.23
2018-03-16T13:37:34.290Z,5.12
2018-03-16T13:40:01.159Z,6.47
2018-03-16T13:42:28.783Z,6.23
2018-03-16T13:44:55.613Z,7.70
2018-03-16T13:47:22.436Z,8.10
2018-03-16T13:49:49.267Z,8.50
2018-03-16T13:52:16.202Z,6.03
2018-03-16T13:54:43.039Z,7.10
2018-03-16T13:57:09.866Z,6.03
2018-03-16T13:59:37.455Z,7.13
2018-03-16T14:02:04.374Z,6.20
2018-03-16T14:04:31.212Z,5.70
2018-03-16T14:06:58.060Z,4.83
2018-03-16T14:09:25.683Z,6.50
2018-03-16T14:11:52.579Z,5.10
2018-03-16T14:14:20.143Z,6.53
2018-03-16T14:16:46.993Z,7.07
2018-03-16T14:19:13.857Z,6.00
2018-03-16T14:21:40.723Z,5.23
2018-03-16T14:24:07.534Z,6.10
2018-03-16T14:26:34.599Z,6.90
2018-03-16T14:29:01.459Z,5.53
2018-03-16T14:31:28.311Z,5.27
2018-03-16T14:33:55.175Z,5.93
2018-03-16T14:36:21.987Z,10.37
2018-03-16T14:38:48.798Z,4.87
2018-03-16T14:41:15.702Z,5.90
2018-03-16T14:43:43.275Z,5.07
2018-03-16T14:46:10.112Z,6.30
2018-03-16T14:48:36.975Z,6.93
2018-03-16T14:51:03.888Z,6.10
2018-03-16T14:53:30.686Z,5.80
2018-03-16T14:55:58.566Z,6.00
2018-03-16T14:58:25.702Z,7.40
2018-03-16T15:00:52.678Z,8.87
2018-03-16T15:03:20.223Z,4.30
2018-03-16T15:05:47.839Z,10.57
2018-03-16T15:08:15.473Z,7.80
2018-03-16T15:10:43.176Z,5.30
2018-03-16T15:13:10.316Z,6.27
2018-03-16T15:15:37.179Z,5.60
2018-03-16T15:18:04.071Z,6.50
2018-03-16T15:20:31.007Z,9.07
2018-03-16T15:22:58.628Z,6.57
2018-03-16T15:25:25.477Z,5.53
2018-03-16T15:27:52.290Z,6.90
2018-03-16T15:30:19.923Z,6.13
2018-03-16T15:32:47.507Z,5.03
2018-03-16T15:35:14.330Z,6.63
2018-03-16T15:37:41.956Z,6.43
2018-03-16T15:40:08.803Z,5.63
2018-03-16T15:42:35.635Z,6.50
2018-03-16T15:45:02.533Z,5.97
2018-03-16T15:47:29.382Z,5.50
2018-03-16T15:49:56.975Z,7.23
2018-03-16T15:52:24.676Z,6.10
2018-03-16T15:54:51.483Z,5.47
2018-03-16T15:57:18.328Z,9.97
2018-03-16T15:59:45.166Z,6.73
2018-03-16T16:02:12.033Z,5.87
2018-03-16T16:04:38.894Z,6.60
2018-03-16T16:07:06.496Z,7.17
2018-03-16T16:09:33.356Z,8.20
2018-03-16T16:12:00.199Z,6.80
2018-03-16T16:14:27.047Z,8.33
2018-03-16T16:16:53.914Z,6.30
2018-03-16T16:19:21.507Z,7.47
2018-03-16T16:21:48.396Z,6.57
2018-03-16T16:24:15.228Z,7.33
2018-03-16T16:26:42.102Z,7.73
2018-03-16T16:29:09.687Z,6.13
2018-03-16T16:31:37.311Z,6.23
2018-03-16T16:34:04.159Z,6.33
2018-03-16T16:36:31.035Z,7.03
2018-03-16T16:38:57.870Z,8.53
2018-03-16T16:41:24.835Z,7.10
2018-03-16T16:43:51.676Z,9.17
2018-03-16T16:46:18.584Z,7.83
2018-03-16T16:48:45.459Z,6.37
2018-03-16T16:51:12.363Z,7.17
2018-03-16T16:53:39.213Z,10.30
2018-03-16T16:56:07.059Z,7.70
2018-03-16T16:58:33.888Z,8.83
2018-03-16T17:01:00.748Z,8.90
2018-03-16T17:03:27.624Z,6.53
2018-03-16T17:05:54.471Z,6.80
2018-03-16T17:08:22.054Z,5.97
2018-03-16T17:10:49.763Z,9.43
2018-03-16T17:13:16.591Z,7.13
2018-03-16T17:15:43.398Z,5.80
2018-03-16T17:18:10.274Z,7.13
2018-03-16T17:20:37.131Z,8.50
2018-03-16T17:23:03.958Z,7.00
2018-03-16T17:25:30.794Z,10.10
2018-03-16T17:27:57.626Z,7.40
2018-03-16T17:30:24.523Z,8.50
2018-03-16T17:32:52.202Z,9.20
2018-03-16T17:35:19.771Z,12.83
2018-03-16T17:37:46.607Z,20.43
2018-03-16T17:40:13.475Z,22.03
2018-03-16T17:42:40.295Z,21.70
2018-03-16T17:45:07.872Z,19.23
2018-03-16T17:47:34.730Z,35.23
2018-03-16T17:50:01.611Z,24.23
2018-03-16T17:52:28.554Z,24.57
2018-03-16T17:54:56.151Z,20.97
2018-03-16T17:57:22.995Z,23.93
2018-03-16T17:59:50.627Z,18.77
2018-03-16T18:02:18.298Z,18.97
2018-03-16T18:04:45.873Z,20.27
2018-03-16T18:07:12.726Z,21.73
2018-03-16T18:09:39.602Z,23.30
2018-03-16T18:12:06.471Z,22.27
2018-03-16T18:14:33.337Z,24.87
2018-03-16T18:17:00.146Z,24.83
2018-03-16T18:19:27.728Z,22.27
2018-03-16T18:21:55.391Z,21.73
2018-03-16T18:24:22.251Z,24.40
2018-03-16T18:26:49.815Z,29.10
2018-03-16T18:29:16.679Z,34.20
2018-03-16T18:31:43.621Z,30.67
2018-03-16T18:34:10.437Z,30.40
2018-03-16T18:36:38.244Z,26.73
2018-03-16T18:39:05.316Z,24.07
2018-03-16T18:41:32.271Z,24.20
2018-03-16T18:43:59.126Z,21.87
2018-03-16T18:46:25.939Z,22.52
2018-03-16T18:48:52.829Z,20.00
2018-03-16T18:51:19.727Z,19.80
2018-03-16T18:53:46.579Z,18.55
2018-03-16T18:56:13.636Z,17.62
2018-03-16T18:58:40.677Z,20.62
2018-03-16T19:01:09.240Z,16.27
2018-03-16T19:03:36.873Z,15.90
2018-03-16T19:06:03.717Z,16.25
2018-03-16T19:08:30.584Z,19.12
2018-03-16T19:10:57.498Z,17.07
2018-03-16T19:13:24.447Z,18.05
2018-03-16T19:15:52.108Z,34.65
2018-03-16T19:18:18.971Z,30.17
2018-03-16T19:20:45.844Z,29.80
2018-03-16T19:23:13.604Z,31.58
2018-03-16T19:25:40.734Z,26.77
2018-03-16T19:28:07.609Z,27.85
2018-03-16T19:30:34.550Z,30.03
2018-03-16T19:33:01.415Z,23.97
2018-03-16T19:35:29.937Z,24.50
2018-03-16T19:37:56.800Z,26.13
2018-03-16T19:40:24.752Z,24.30
2018-03-16T19:42:51.592Z,25.27
2018-03-16T19:45:19.579Z,24.75
2018-03-16T19:47:46.435Z,21.42
2018-03-16T19:50:14.100Z,21.83
2018-03-16T19:52:41.606Z,21.00
2018-03-16T19:55:08.464Z,21.20
2018-03-16T19:57:35.346Z,20.00
2018-03-16T20:00:02.553Z,18.85
2018-03-16T20:02:29.455Z,20.25
2018-03-16T20:04:57.619Z,18.65
2018-03-16T20:07:25.274Z,20.80
2018-03-16T20:09:52.124Z,18.05
2018-03-16T20:12:20.286Z,18.83
2018-03-16T20:14:47.228Z,16.50
2018-03-16T20:17:15.123Z,14.90
2018-03-16T20:19:43.390Z,16.15
2018-03-16T20:22:11.064Z,14.85
2018-03-16T20:24:38.643Z,21.05
2018-03-16T20:27:06.416Z,14.38
2018-03-16T20:29:33.274Z,13.80
2018-03-16T20:32:00.136Z,15.32
2018-03-16T20:34:27.000Z,16.90
2018-03-16T20:36:53.866Z,12.57
2018-03-16T20:39:22.044Z,15.18
2018-03-16T20:41:49.855Z,12.60
2018-03-16T20:44:16.719Z,12.50
2018-03-16T20:46:43.560Z,13.50
2018-03-16T20:49:10.428Z,12.13
2018-03-16T20:51:38.091Z,13.62
2018-03-16T20:54:04.963Z,14.27
2018-03-16T20:56:31.823Z,12.37
2018-03-16T20:58:58.715Z,16.65
2018-03-16T21:01:26.668Z,14.80
2018-03-16T21:03:54.299Z,14.57
2018-03-16T21:06:21.177Z,12.32
2018-03-16T21:08:48.003Z,12.88
2018-03-16T21:11:15.000Z,11.82
2018-03-16T21:13:41.849Z,13.43
2018-03-16T21:16:09.411Z,13.50
2018-03-16T21:18:36.271Z,12.70
2018-03-16T21:21:03.134Z,15.27
2018-03-16T21:23:29.972Z,16.45
2018-03-16T21:25:56.803Z,13.20
2018-03-16T21:28:23.822Z,10.13
2018-03-16T21:30:50.711Z,9.30
2018-03-16T21:33:17.583Z,11.15
2018-03-16T21:35:45.351Z,13.15
2018-03-16T21:38:12.934Z,12.20
2018-03-16T21:40:39.827Z,11.95
2018-03-16T21:43:06.868Z,13.77
2018-03-16T21:45:33.701Z,12.90
2018-03-16T21:48:00.540Z,13.45
2018-03-16T21:50:27.448Z,13.98
2018-03-16T21:52:54.293Z,11.88
2018-03-16T21:55:21.137Z,13.45
2018-03-16T21:57:48.014Z,16.20
2018-03-16T22:00:14.883Z,19.48
2018-03-16T22:02:41.720Z,22.60
2018-03-16T22:05:08.558Z,20.27
2018-03-16T22:07:36.111Z,27.95
2018-03-16T22:10:03.012Z,25.60
2018-03-16T22:12:29.899Z,19.40
2018-03-16T22:14:56.762Z,19.42
2018-03-16T22:17:23.645Z,22.80
2018-03-16T22:19:50.490Z,23.58
2018-03-16T22:22:17.375Z,25.85
2018-03-16T22:24:44.211Z,25.27
2018-03-16T22:27:11.539Z,30.15
2018-03-16T22:29:38.365Z,18.60
2018-03-16T22:32:05.271Z,26.48
2018-03-16T22:34:32.098Z,20.30
2018-03-16T22:36:58.964Z,26.92
2018-03-16T22:39:25.781Z,22.52
2018-03-16T22:41:52.646Z,23.33
2018-03-16T22:44:20.244Z,25.95
2018-03-16T22:46:47.088Z,31.40
2018-03-16T22:49:13.939Z,45.15
2018-03-16T22:51:40.894Z,29.40
2018-03-16T22:54:07.742Z,29.27
2018-03-16T22:56:34.567Z,34.05
2018-03-16T22:59:01.420Z,35.35
2018-03-16T23:01:28.307Z,35.60
2018-03-16T23:03:55.120Z,28.17
2018-03-16T23:06:21.950Z,38.20
2018-03-16T23:08:48.775Z,29.50
2018-03-16T23:11:15.663Z,29.37
2018-03-16T23:13:42.531Z,34.70
2018-03-16T23:16:10.138Z,30.20
2018-03-16T23:18:36.995Z,32.33
2018-03-16T23:21:03.910Z,25.98
2018-03-16T23:23:30.743Z,16.80
2018-03-16T23:25:57.799Z,14.50
2018-03-16T23:28:24.657Z,14.30
2018-03-16T23:30:51.606Z,13.25
2018-03-16T23:33:18.414Z,13.02
2018-03-16T23:35:45.414Z,14.65
2018-03-16T23:38:12.235Z,17.83
2018-03-16T23:40:39.110Z,19.00
2018-03-16T23:43:06.727Z,24.73
2018-03-16T23:45:33.563Z,20.92
2018-03-16T23:48:00.422Z,15.07
2018-03-16T23:50:27.297Z,15.50
2018-03-16T23:52:54.131Z,21.37
2018-03-16T23:55:20.992Z,17.60
2018-03-16T23:57:47.859Z,15.75
